首页
METAR-TAF:

METAR-TAF

机场 :

科希策, 斯洛伐克

纬度: 48-39-47N, 经度: 021-14-28E, 海拔: 232米

当前天气观测

该预报发布于33分钟前的13:00 UTC
风速4节,风向东转东北,在之间变化
温度 27°C
湿度 54%
气压 1017 hPa
能见度10公里或以上
散云层高于4300英尺

METAR: LZKZ 181300Z 06004KT 010V100 9999 SCT043 27/17 Q1017 NOSIG

时间: 15:33 (13:33 UTC)

预报

该预报发布于2小时和33分钟前的11:00 UTC
预报有效从18日的 12点(UTC)到 19日的 12点(UTC)
风速7节,风向北转东北
能见度10公里或以上
散云层高于4000英尺
几率 40% :
短暂存在
从 18日的 12点(UTC)到 18日的 18点(UTC)
能见度10公里或以上
散云层高于4500英尺, 塔状积云.
小阵雨
短暂存在
从 18日的 18点(UTC)到 19日的 06点(UTC)
风速15节,风向北转西北
能見度: 7000
少量云层高于4000英尺, 积雨云.
多云层高于5000英尺
雷暴, 雨

TAF: LZKZ 181100Z 1812/1912 03007KT 9999 SCT040 PROB40 TEMPO 1812/1818 9999 -SHRA SCT045TCU TEMPO 1818/1906 34015KT 7000 TSRA FEW040CB BKN050

超过4000个机场的气象观测和天气预报(METAR&TAF报告)。

可查询的气象台以黄色和红色小点在地图上表示。

将鼠标移到小点上方,可查看气象台名称。

然后点击查看天气观测和预报。

如需切换地图:点击带黑十字的绿色按钮放大地图;点击带横线的绿色按钮缩小地图;或者点击绿色箭头查看邻近地区的地图。


METAR-TAF: